createdAt,value
2023-09-05T00:04:20.353Z,53.7
2023-09-05T00:09:20.601Z,53.7
2023-09-05T00:14:20.989Z,53.7
2023-09-05T00:19:21.647Z,53.9
2023-09-05T00:24:21.918Z,53.7
2023-09-05T00:29:25.287Z,53.3
2023-09-05T00:34:25.304Z,53.7
2023-09-05T00:39:25.990Z,53.6
2023-09-05T00:44:29.177Z,53.9
2023-09-05T00:49:29.244Z,53.9
2023-09-05T00:54:29.546Z,53.8
2023-09-05T00:59:30.106Z,53.7
2023-09-05T01:04:30.729Z,53.9
2023-09-05T01:09:31.314Z,53.6
2023-09-05T01:14:31.900Z,53.1
2023-09-05T01:19:32.524Z,52.9
2023-09-05T01:24:32.975Z,52.9
2023-09-05T01:29:33.375Z,52.7
2023-09-05T01:34:33.893Z,52.9
2023-09-05T01:39:34.598Z,52.8
2023-09-05T01:44:37.902Z,52.7
2023-09-05T01:49:40.979Z,52.9
2023-09-05T01:54:43.805Z,53.2
2023-09-05T01:59:46.323Z,52.9
2023-09-05T02:04:49.043Z,52.7
2023-09-05T02:09:49.266Z,52.7
2023-09-05T02:14:52.511Z,52.4
2023-09-05T02:19:52.551Z,52.5
2023-09-05T02:24:53.023Z,52.8
2023-09-05T02:29:53.623Z,52.7
2023-09-05T02:34:56.847Z,52.6
2023-09-05T02:39:59.809Z,52.8
2023-09-05T02:45:02.631Z,52.7
2023-09-05T02:50:02.623Z,52.8
2023-09-05T02:55:03.223Z,53
2023-09-05T03:00:03.802Z,53.3
2023-09-05T03:05:04.199Z,53.1
2023-09-05T03:10:04.726Z,53
2023-09-05T03:15:05.422Z,53.3
2023-09-05T03:20:05.757Z,53.2
2023-09-05T03:25:06.289Z,53.2
2023-09-05T03:30:09.570Z,53.1
2023-09-05T03:35:09.587Z,53.6
2023-09-05T03:40:10.171Z,53.3
2023-09-05T03:45:10.705Z,53.6
2023-09-05T03:50:14.921Z,53.5
2023-09-05T03:55:14.845Z,53.6
2023-09-05T04:00:15.290Z,53.8
2023-09-05T04:05:15.932Z,53.6
2023-09-05T04:10:16.518Z,53.9
2023-09-05T04:15:17.217Z,53.5
2023-09-05T04:20:18.040Z,53.6
2023-09-05T04:25:18.766Z,53.7
2023-09-05T04:30:19.290Z,53.8
2023-09-05T04:35:22.318Z,53.6
2023-09-05T04:40:25.195Z,53.7
2023-09-05T04:45:27.801Z,53.8
2023-09-05T04:50:30.437Z,53.8
2023-09-05T04:55:30.355Z,54.1
2023-09-05T05:00:33.537Z,53.7
2023-09-05T05:05:33.901Z,53.7
2023-09-05T05:10:37.394Z,53.9
2023-09-05T05:15:37.354Z,53.9
2023-09-05T05:20:37.823Z,53.8
2023-09-05T05:25:38.358Z,53.7
2023-09-05T05:30:38.995Z,53.3
2023-09-05T05:35:39.656Z,53.1
2023-09-05T05:40:42.979Z,52.8
2023-09-05T05:45:43.367Z,52.9
2023-09-05T05:50:46.324Z,52.7
2023-09-05T05:55:46.484Z,52.9
2023-09-05T06:00:48.951Z,53
2023-09-05T06:05:49.132Z,52.9
2023-09-05T06:10:52.284Z,52.5
2023-09-05T06:15:55.139Z,52.6
2023-09-05T06:20:55.128Z,52.5
2023-09-05T06:25:55.507Z,52.7
2023-09-05T06:30:56.017Z,52.5
2023-09-05T06:35:56.541Z,52.4
2023-09-05T06:40:59.598Z,52.4
2023-09-05T06:45:59.705Z,52.2
2023-09-05T06:51:00.424Z,52.3
2023-09-05T06:56:00.675Z,52.1
2023-09-05T07:01:03.901Z,52
2023-09-05T07:06:06.970Z,51.8
2023-09-05T07:11:04.825Z,51.6
2023-09-05T07:16:08.202Z,51.7
2023-09-05T07:21:08.256Z,51.7
2023-09-05T07:26:08.872Z,51.5
2023-09-05T07:31:12.126Z,51.6
2023-09-05T07:36:11.773Z,51.6
2023-09-05T07:41:15.770Z,51.9
2023-09-05T07:46:15.723Z,52.1
2023-09-05T07:51:16.177Z,51.9
2023-09-05T07:56:16.736Z,51.8
2023-09-05T08:01:20.157Z,51.3
2023-09-05T08:06:23.115Z,51.8
2023-09-05T08:11:21.782Z,51.5
2023-09-05T08:16:22.894Z,51.1
2023-09-05T08:21:23.287Z,51.3
2023-09-05T08:26:24.063Z,51.1
2023-09-05T08:31:24.418Z,51
2023-09-05T08:36:25.112Z,50.8
2023-09-05T08:41:25.633Z,50.8
2023-09-05T08:46:28.948Z,50.5
2023-09-05T08:51:29.007Z,50.5
2023-09-05T08:56:32.466Z,50.8
2023-09-05T09:01:32.792Z,50.5
2023-09-05T09:06:33.510Z,50.2
2023-09-05T09:11:34.265Z,50
2023-09-05T09:16:35.056Z,49.8
2023-09-05T09:21:35.528Z,49.5
2023-09-05T09:26:36.016Z,48.8
2023-09-05T09:31:36.597Z,48.9
2023-09-05T09:36:39.673Z,48.6
2023-09-05T09:41:42.376Z,47.8
2023-09-05T09:46:42.531Z,48.3
2023-09-05T09:51:42.930Z,46.7
2023-09-05T09:56:43.615Z,46.5
2023-09-05T10:01:44.457Z,45.8
2023-09-05T10:06:47.709Z,46
2023-09-05T10:11:50.722Z,45.4
2023-09-05T10:16:50.983Z,45.5
2023-09-05T10:21:51.370Z,44.4
2023-09-05T10:26:52.158Z,43.9
2023-09-05T10:31:57.281Z,44
2023-09-05T10:36:57.083Z,44
2023-09-05T10:41:57.427Z,44.1
2023-09-05T10:46:58.066Z,43.8
2023-09-05T10:52:01.335Z,43.1
2023-09-05T10:57:01.326Z,43.3
2023-09-05T11:02:02.180Z,43.4
2023-09-05T11:07:05.540Z,42.5
2023-09-05T11:12:08.452Z,42.5
2023-09-05T11:17:11.436Z,42.9
2023-09-05T11:22:11.798Z,43.1
2023-09-05T11:27:12.348Z,43.3
2023-09-05T11:32:15.513Z,43
2023-09-05T11:37:15.836Z,41.7
2023-09-05T11:42:16.460Z,41.6
2023-09-05T11:47:17.392Z,41.5
2023-09-05T11:52:20.739Z,42.1
2023-09-05T11:57:20.717Z,42.8
2023-09-05T12:02:21.012Z,42.5
2023-09-05T12:07:24.443Z,42.9
2023-09-05T12:12:24.328Z,43
2023-09-05T12:17:27.591Z,42.8
2023-09-05T12:22:30.665Z,42.8
2023-09-05T12:27:30.583Z,42.4
2023-09-05T12:32:30.888Z,42.2
2023-09-05T12:37:31.401Z,42
2023-09-05T12:42:32.034Z,41.8
2023-09-05T12:47:32.498Z,40.9
2023-09-05T12:52:32.935Z,40.5
2023-09-05T12:57:33.577Z,40.6
2023-09-05T13:02:33.957Z,40.9
2023-09-05T13:07:37.243Z,40.6
2023-09-05T13:12:40.047Z,40.7
2023-09-05T13:17:40.300Z,40.7
2023-09-05T13:22:40.837Z,41.1
2023-09-05T13:27:41.367Z,41.2
2023-09-05T13:32:42.037Z,41.4
2023-09-05T13:37:42.185Z,41.5
2023-09-05T13:42:43.043Z,41.7
2023-09-05T13:47:43.737Z,41.8
2023-09-05T13:52:44.233Z,41.6
2023-09-05T13:57:47.420Z,41.7
2023-09-05T14:02:47.544Z,41.7
2023-09-05T14:07:48.030Z,41.6
2023-09-05T14:12:51.254Z,41.6
2023-09-05T14:17:51.480Z,41.4
2023-09-05T14:22:52.288Z,41.5
2023-09-05T14:27:55.614Z,41.7
2023-09-05T14:32:58.436Z,41.8
2023-09-05T14:38:01.284Z,41.7
2023-09-05T14:43:01.227Z,41.9
2023-09-05T14:48:03.504Z,41.8
2023-09-05T14:53:03.882Z,41.8
2023-09-05T14:58:04.099Z,42
2023-09-05T15:03:04.601Z,41.7
2023-09-05T15:08:05.104Z,42.3
2023-09-05T15:13:06.230Z,42
2023-09-05T15:18:06.626Z,42.2
2023-09-05T15:23:07.051Z,42.5
2023-09-05T15:28:07.552Z,42.6
2023-09-05T15:33:10.839Z,42.9
2023-09-05T15:38:10.616Z,43.2
2023-09-05T15:43:11.003Z,43.5
2023-09-05T15:48:11.981Z,43.7
2023-09-05T15:53:12.573Z,44
2023-09-05T15:58:13.091Z,43.9
2023-09-05T16:03:15.543Z,44
2023-09-05T16:08:15.949Z,44.4
2023-09-05T16:13:16.234Z,44.4
2023-09-05T16:23:17.512Z,44.3
2023-09-05T16:28:18.164Z,44.4
2023-09-05T16:33:18.416Z,44.3
2023-09-05T16:38:19.144Z,44.5
2023-09-05T16:43:19.631Z,44.8
2023-09-05T16:48:20.412Z,44.6
2023-09-05T16:53:25.048Z,44.8
2023-09-05T16:58:25.109Z,44.5
2023-09-05T17:03:25.475Z,44.9
2023-09-05T17:08:26.159Z,44.8
2023-09-05T17:13:26.524Z,45.1
2023-09-05T17:18:27.401Z,45.1
2023-09-05T17:23:27.535Z,45.2
2023-09-05T17:28:30.731Z,45.1
2023-09-05T17:33:33.631Z,45.2
2023-09-05T17:38:33.707Z,45.1
2023-09-05T17:43:33.974Z,45
2023-09-05T17:48:34.644Z,45
2023-09-05T17:53:34.911Z,45.2
2023-09-05T17:58:35.473Z,44.9
2023-09-05T18:03:36.185Z,44.8
2023-09-05T18:08:39.473Z,44.9
2023-09-05T18:13:42.168Z,45
2023-09-05T18:18:42.123Z,45.1
2023-09-05T18:23:46.876Z,45.3
2023-09-05T18:28:49.477Z,45.5
2023-09-05T18:33:49.408Z,45.3
2023-09-05T18:38:49.945Z,45.5
2023-09-05T18:43:50.213Z,45.9
2023-09-05T18:48:50.883Z,45.4
2023-09-05T18:53:53.944Z,45.7
2023-09-05T18:58:53.907Z,46.2
2023-09-05T19:03:54.740Z,45.9
2023-09-05T19:08:54.797Z,46.2
2023-09-05T19:13:55.008Z,46.9
2023-09-05T19:18:55.365Z,47
2023-09-05T19:23:58.815Z,47.2
2023-09-05T19:28:58.708Z,47.5
2023-09-05T19:44:17.185Z,47.9
2023-09-05T19:49:17.280Z,48.5
2023-09-05T19:54:17.320Z,48.4
2023-09-05T19:59:20.442Z,48.7
2023-09-05T20:04:20.501Z,49.2
2023-09-05T20:09:23.476Z,49.2
2023-09-05T20:14:26.289Z,49.6
2023-09-05T20:19:26.218Z,49.9
2023-09-05T20:29:35.168Z,50.3
2023-09-05T20:34:38.142Z,50.3
2023-09-05T20:39:38.274Z,50.4
2023-09-05T20:54:51.695Z,51.3
2023-09-05T20:59:51.891Z,51.4
2023-09-05T21:04:52.516Z,52
2023-09-05T21:09:54.701Z,52.2
2023-09-05T21:14:54.779Z,52.6
2023-09-05T21:19:55.259Z,52.4
2023-09-05T21:24:55.901Z,52.5
2023-09-05T21:29:59.258Z,52.8
2023-09-05T21:34:59.173Z,53
2023-09-05T21:39:59.818Z,53.1
2023-09-05T21:45:00.340Z,53.2
2023-09-05T21:50:00.974Z,53.5
2023-09-05T21:55:01.434Z,53.4
2023-09-05T22:00:01.886Z,53.7
2023-09-05T22:05:02.226Z,53.5
2023-09-05T22:10:02.950Z,53.4
2023-09-05T22:20:03.698Z,53.5
2023-09-05T22:25:04.060Z,53.7
2023-09-05T22:30:07.420Z,53.8
2023-09-05T22:35:10.005Z,53.8
2023-09-05T22:40:10.065Z,53.4
2023-09-05T22:45:10.660Z,53.8
2023-09-05T22:50:11.184Z,53.6
2023-09-05T22:55:11.927Z,53.4
2023-09-05T23:00:15.225Z,53.7
2023-09-05T23:05:17.888Z,53.5
2023-09-05T23:10:20.620Z,53.5
2023-09-05T23:15:20.657Z,53.6
2023-09-05T23:20:21.329Z,53.4
2023-09-05T23:25:21.724Z,53.3
2023-09-05T23:30:22.320Z,53.4
2023-09-05T23:35:22.878Z,53.2
2023-09-05T23:40:26.217Z,53.3
2023-09-05T23:45:26.273Z,53.4
2023-09-05T23:50:26.840Z,53.4
2023-09-05T23:55:29.780Z,53.4
